createdAt,value
2022-08-02T00:01:25.959Z,20.35
2022-08-02T00:06:28.787Z,20.25
2022-08-02T00:11:32.072Z,20.14
2022-08-02T00:16:38.185Z,19.98
2022-08-02T00:21:42.134Z,19.86
2022-08-02T00:26:45.753Z,19.77
2022-08-02T00:31:48.502Z,19.74
2022-08-02T00:36:51.778Z,19.69
2022-08-02T00:41:54.705Z,19.59
2022-08-02T00:46:57.551Z,19.52
2022-08-02T00:52:01.190Z,19.42
2022-08-02T00:57:05.037Z,19.28
2022-08-02T01:02:09.767Z,19.19
2022-08-02T01:07:14.567Z,19.08
2022-08-02T01:12:17.788Z,19.05
2022-08-02T01:17:50.647Z,19.07
2022-08-02T01:23:18.539Z,19.10
2022-08-02T01:28:50.907Z,19.09
2022-08-02T01:34:19.319Z,19.03
2022-08-02T01:39:31.957Z,18.92
2022-08-02T01:44:40.088Z,18.84
2022-08-02T01:49:48.173Z,18.78
2022-08-02T01:55:07.261Z,18.68
2022-08-02T02:00:14.808Z,18.57
2022-08-02T02:05:23.019Z,18.49
2022-08-02T02:10:30.346Z,18.42
2022-08-02T02:15:35.041Z,18.33
2022-08-02T02:20:38.704Z,18.26
2022-08-02T02:25:46.825Z,18.22
2022-08-02T02:30:55.487Z,18.17
2022-08-02T02:35:59.554Z,18.17
2022-08-02T02:41:06.797Z,18.17
2022-08-02T02:46:11.392Z,18.19
2022-08-02T02:51:15.107Z,18.12
2022-08-02T02:56:18.840Z,18.11
2022-08-02T03:01:55.473Z,18.11
2022-08-02T03:06:52.382Z,18.14
2022-08-02T03:11:57.042Z,18.15
2022-08-02T03:16:59.870Z,18.15
2022-08-02T03:22:02.744Z,18.16
2022-08-02T03:27:05.934Z,18.17
2022-08-02T03:32:09.354Z,18.15
2022-08-02T03:37:12.617Z,18.08
2022-08-02T03:42:16.172Z,18.05
2022-08-02T03:47:19.891Z,18.08
2022-08-02T03:52:25.433Z,18.15
2022-08-02T03:57:28.605Z,18.19
2022-08-02T04:02:31.567Z,18.24
2022-08-02T04:08:02.606Z,18.33
2022-08-02T04:12:58.113Z,18.43
2022-08-02T04:18:04.124Z,18.50
2022-08-02T04:23:14.583Z,18.58
2022-08-02T04:28:19.424Z,18.66
2022-08-02T04:33:32.150Z,18.74
2022-08-02T04:38:35.078Z,18.84
2022-08-02T04:43:37.892Z,18.96
2022-08-02T04:48:40.831Z,19.11
2022-08-02T04:53:43.635Z,19.30
2022-08-02T04:58:46.424Z,19.47
2022-08-02T05:03:49.372Z,19.67
2022-08-02T05:08:52.615Z,19.83
2022-08-02T05:13:58.544Z,19.94
2022-08-02T05:19:03.158Z,20.09
2022-08-02T05:24:07.064Z,20.26
2022-08-02T05:29:09.893Z,20.44
2022-08-02T05:34:13.001Z,20.63
2022-08-02T05:39:18.950Z,20.88
2022-08-02T05:44:22.505Z,21.44
2022-08-02T05:49:25.402Z,21.73
2022-08-02T05:54:51.040Z,21.85
2022-08-02T06:00:10.937Z,21.98
2022-08-02T06:05:21.550Z,22.09
2022-08-02T06:10:26.943Z,22.27
2022-08-02T06:15:30.306Z,22.48
2022-08-02T06:20:38.340Z,22.65
2022-08-02T06:25:47.965Z,22.81
2022-08-02T06:30:54.685Z,22.98
2022-08-02T06:36:22.152Z,23.17
2022-08-02T06:41:27.754Z,23.33
2022-08-02T06:46:57.399Z,23.46
2022-08-02T06:51:53.884Z,23.58
2022-08-02T06:56:56.911Z,23.71
2022-08-02T07:02:00.014Z,23.84
2022-08-02T07:07:02.940Z,23.99
2022-08-02T07:12:06.608Z,24.14
2022-08-02T07:17:09.469Z,24.21
2022-08-02T07:22:13.210Z,24.33
2022-08-02T07:27:16.270Z,24.47
2022-08-02T07:32:23.627Z,24.65
2022-08-02T07:37:52.806Z,24.77
2022-08-02T07:43:02.392Z,24.95
2022-08-02T07:48:08.520Z,25.14
2022-08-02T07:53:11.324Z,25.33
2022-08-02T07:58:14.206Z,25.50
2022-08-02T08:03:16.929Z,25.60
2022-08-02T08:08:19.752Z,25.69
2022-08-02T08:13:22.707Z,25.84
2022-08-02T08:18:25.541Z,26.03
2022-08-02T08:23:28.585Z,26.29
2022-08-02T08:28:31.446Z,26.47
2022-08-02T08:33:34.924Z,26.58
2022-08-02T08:38:37.834Z,26.83
2022-08-02T08:43:40.680Z,27.10
2022-08-02T08:48:50.095Z,27.16
2022-08-02T08:53:57.025Z,27.24
2022-08-02T08:59:00.721Z,27.31
2022-08-02T09:04:03.560Z,27.43
2022-08-02T09:09:06.310Z,27.52
2022-08-02T09:14:09.291Z,27.61
2022-08-02T09:19:26.970Z,27.67
2022-08-02T09:24:40.624Z,27.86
2022-08-02T09:35:12.393Z,28.22
2022-08-02T09:40:15.352Z,28.45
2022-08-02T09:45:18.315Z,28.62
2022-08-02T09:50:21.092Z,28.73
2022-08-02T09:55:26.209Z,28.79
2022-08-02T10:00:50.883Z,28.90
2022-08-02T10:06:03.026Z,28.96
2022-08-02T10:11:06.288Z,29.13
2022-08-02T10:16:10.226Z,29.16
2022-08-02T10:21:29.660Z,29.32
2022-08-02T10:26:33.309Z,29.51
2022-08-02T10:31:55.470Z,29.83
2022-08-02T10:37:03.622Z,29.90
2022-08-02T10:42:06.621Z,29.91
2022-08-02T10:47:17.225Z,29.99
2022-08-02T10:52:31.114Z,29.87
2022-08-02T10:57:35.486Z,29.88
2022-08-02T11:02:42.573Z,30.07
2022-08-02T11:07:50.541Z,30.29
2022-08-02T11:13:17.630Z,30.51
2022-08-02T11:18:22.343Z,30.34
2022-08-02T11:23:45.191Z,30.08
2022-08-02T11:28:51.856Z,29.96
2022-08-02T11:33:54.737Z,30.00
2022-08-02T11:39:15.820Z,29.87
2022-08-02T11:44:20.008Z,29.91
2022-08-02T11:49:26.755Z,30.05
2022-08-02T11:54:35.418Z,30.08
2022-08-02T11:59:39.546Z,30.44
2022-08-02T12:04:42.779Z,30.82
2022-08-02T12:09:46.906Z,31.17
2022-08-02T12:14:49.781Z,31.49
2022-08-02T12:19:52.692Z,31.88
2022-08-02T12:24:58.577Z,31.93
2022-08-02T12:30:09.360Z,31.54
2022-08-02T12:35:25.932Z,30.96
2022-08-02T12:40:33.396Z,30.68
2022-08-02T12:45:56.652Z,30.77
2022-08-02T12:50:59.574Z,30.68
2022-08-02T12:56:03.870Z,30.96
2022-08-02T13:01:06.947Z,30.99
2022-08-02T13:06:40.955Z,31.19
2022-08-02T13:11:32.641Z,31.69
2022-08-02T13:16:35.466Z,32.18
2022-08-02T13:21:41.774Z,32.37
2022-08-02T13:27:04.470Z,32.60
2022-08-02T13:32:11.889Z,33.00
2022-08-02T13:37:15.212Z,33.33
2022-08-02T13:42:18.452Z,33.34
2022-08-02T13:47:26.587Z,33.50
2022-08-02T13:52:39.847Z,33.67
2022-08-02T13:57:42.782Z,33.50
2022-08-02T14:02:56.308Z,33.41
2022-08-02T14:08:01.431Z,33.20
2022-08-02T14:13:04.515Z,33.28
2022-08-02T14:18:07.273Z,33.52
2022-08-02T14:23:10.415Z,33.72
2022-08-02T14:28:13.401Z,33.80
2022-08-02T14:33:16.307Z,33.86
2022-08-02T14:38:20.034Z,33.77
2022-08-02T14:43:41.804Z,33.70
2022-08-02T14:48:44.854Z,33.74
2022-08-02T14:53:49.688Z,33.77
2022-08-02T14:59:06.422Z,33.73
2022-08-02T15:04:09.303Z,33.64
2022-08-02T15:09:13.588Z,33.59
2022-08-02T15:14:25.828Z,33.58
2022-08-02T15:19:56.480Z,33.66
2022-08-02T15:24:54.376Z,33.76
2022-08-02T15:30:00.591Z,33.57
2022-08-02T15:35:04.414Z,33.37
2022-08-02T15:40:08.180Z,33.28
2022-08-02T15:45:14.765Z,33.27
2022-08-02T15:50:19.075Z,33.18
2022-08-02T15:55:22.948Z,33.19
2022-08-02T16:00:25.801Z,33.17
2022-08-02T16:05:28.853Z,33.16
2022-08-02T16:10:31.851Z,32.91
2022-08-02T16:15:34.821Z,32.78
2022-08-02T16:20:37.702Z,32.59
2022-08-02T16:25:42.073Z,32.49
2022-08-02T16:30:59.263Z,32.35
2022-08-02T16:36:07.984Z,32.22
2022-08-02T16:41:10.996Z,32.04
2022-08-02T16:46:15.596Z,31.93
2022-08-02T16:51:19.386Z,31.75
2022-08-02T16:56:22.885Z,31.52
2022-08-02T17:01:27.802Z,31.16
2022-08-02T17:06:51.932Z,30.65
2022-08-02T17:11:55.001Z,30.19
2022-08-02T17:16:57.945Z,29.89
2022-08-02T17:22:00.759Z,29.59
2022-08-02T17:27:04.257Z,29.34
2022-08-02T17:32:10.781Z,29.12
2022-08-02T17:37:14.747Z,28.88
2022-08-02T17:42:20.020Z,28.69
2022-08-02T17:47:30.937Z,28.50
2022-08-02T17:57:59.197Z,28.05
2022-08-02T18:03:05.937Z,27.80
2022-08-02T18:08:09.572Z,27.53
2022-08-02T18:13:12.894Z,27.28
2022-08-02T18:18:19.188Z,27.02
2022-08-02T18:23:32.443Z,26.73
2022-08-02T18:28:40.757Z,26.44
2022-08-02T18:34:00.164Z,26.19
2022-08-02T18:39:07.894Z,25.93
2022-08-02T18:44:15.755Z,25.72
2022-08-02T18:49:19.492Z,25.55
2022-08-02T18:54:26.694Z,25.44
2022-08-02T18:59:36.876Z,25.34
2022-08-02T19:04:43.717Z,25.21
2022-08-02T19:09:49.953Z,25.09
2022-08-02T19:14:52.825Z,24.98
2022-08-02T19:19:56.212Z,24.90
2022-08-02T19:25:00.100Z,24.88
2022-08-02T19:30:08.791Z,24.82
2022-08-02T19:35:19.556Z,24.85
2022-08-02T19:40:33.267Z,24.89
2022-08-02T19:45:50.961Z,24.93
2022-08-02T19:50:59.196Z,25.02
2022-08-02T19:56:04.568Z,25.08
2022-08-02T20:01:09.552Z,25.10
2022-08-02T20:06:29.784Z,25.04
2022-08-02T20:11:35.099Z,24.95
2022-08-02T20:16:38.386Z,24.88
2022-08-02T20:27:08.089Z,24.63
2022-08-02T20:32:11.924Z,24.43
2022-08-02T20:38:01.317Z,24.23
2022-08-02T20:42:38.291Z,24.07
2022-08-02T20:47:42.572Z,23.90
2022-08-02T20:52:49.288Z,23.68
2022-08-02T20:58:00.917Z,23.53
2022-08-02T21:03:05.325Z,23.33
2022-08-02T21:08:13.881Z,23.17
2022-08-02T21:13:22.655Z,22.98
2022-08-02T21:18:34.635Z,22.83
2022-08-02T21:23:44.991Z,22.69
2022-08-02T21:28:52.003Z,22.64
2022-08-02T21:33:59.447Z,22.65
2022-08-02T21:39:09.278Z,22.59
2022-08-02T21:44:12.832Z,22.54
2022-08-02T21:49:16.717Z,22.47
2022-08-02T21:54:21.527Z,22.31
2022-08-02T21:59:26.331Z,22.22
2022-08-02T22:04:30.029Z,22.08
2022-08-02T22:09:43.757Z,21.99
2022-08-02T22:14:53.854Z,21.90
2022-08-02T22:19:57.320Z,21.81
2022-08-02T22:25:00.467Z,21.71
2022-08-02T22:30:07.840Z,21.63
2022-08-02T22:35:13.297Z,21.58
2022-08-02T22:40:16.428Z,21.59
2022-08-02T22:45:20.782Z,21.54
2022-08-02T22:50:23.688Z,21.48
2022-08-02T22:55:32.232Z,21.37
2022-08-02T22:58:49.438Z,28.27
2022-08-02T22:58:55.202Z,24.78
2022-08-02T23:00:35.438Z,21.24
2022-08-02T23:05:39.044Z,21.18
2022-08-02T23:10:42.333Z,21.04
2022-08-02T23:16:04.152Z,20.92
2022-08-02T23:21:07.035Z,20.82
2022-08-02T23:26:09.976Z,20.70
2022-08-02T23:31:51.494Z,20.57
2022-08-02T23:36:55.822Z,20.48
2022-08-02T23:41:58.918Z,20.37
2022-08-02T23:47:01.662Z,20.32
2022-08-02T23:52:04.733Z,20.25
2022-08-02T23:57:20.425Z,20.14
